Time;durP1;ratioP1;P1;durP2;ratioP2;P2;SDS_P1;SDS_P2;PMS_P1;PMS_P2;Temp;Humidity;BMP_temperature;BMP_pressure;BME280_temperature;BME280_humidity;BME280_pressure;Samples;Min_cycle;Max_cycle;Signal;HPM_P1;HPM_P2
2022/08/09 00:01:32;;;;;;;10.13;7.10;;;18.70;99.90;;;;;;5011569;28;20215;-71
2022/08/09 00:03:58;;;;;;;9.53;7.43;;;18.70;99.90;;;;;;5012102;28;20691;-70
2022/08/09 00:06:26;;;;;;;9.77;7.53;;;18.70;99.90;;;;;;5011892;28;20289;-71
2022/08/09 00:08:55;;;;;;;12.43;8.00;;;18.70;99.90;;;;;;5011875;28;20217;-70
2022/08/09 00:11:23;;;;;;;10.10;7.77;;;18.70;99.90;;;;;;5011962;28;20711;-72
2022/08/09 00:13:50;;;;;;;9.10;7.30;;;18.70;99.90;;;;;;5011628;28;20202;-70
2022/08/09 00:16:18;;;;;;;11.03;7.43;;;18.80;99.90;;;;;;5011138;28;20211;-72
2022/08/09 00:18:45;;;;;;;9.10;7.07;;;18.80;99.90;;;;;;5011093;28;20265;-72
2022/08/09 00:21:12;;;;;;;9.50;7.50;;;18.80;99.90;;;;;;5011355;28;20294;-70
2022/08/09 00:23:39;;;;;;;13.03;6.97;;;18.70;99.90;;;;;;5011504;28;20670;-70
2022/08/09 00:26:09;;;;;;;10.07;7.57;;;18.70;99.90;;;;;;5011694;28;20661;-71
2022/08/09 00:28:36;;;;;;;12.93;8.47;;;18.70;99.90;;;;;;5011523;28;20196;-71
2022/08/09 00:31:04;;;;;;;10.97;7.90;;;18.70;99.90;;;;;;5011754;28;20304;-71
2022/08/09 00:33:31;;;;;;;10.87;7.50;;;18.70;99.90;;;;;;5011297;28;20198;-71
2022/08/09 00:35:59;;;;;;;12.13;7.53;;;18.70;99.90;;;;;;5010152;28;20326;-71
2022/08/09 00:38:26;;;;;;;10.47;7.13;;;18.70;99.90;;;;;;5011005;28;20210;-72
2022/08/09 00:40:54;;;;;;;12.10;7.30;;;18.70;99.90;;;;;;5011695;28;20299;-71
2022/08/09 00:43:22;;;;;;;8.93;7.33;;;18.70;99.90;;;;;;5011545;28;20212;-71
2022/08/09 00:45:49;;;;;;;13.87;7.47;;;18.70;99.90;;;;;;5011232;28;20214;-71
2022/08/09 00:48:16;;;;;;;11.43;7.90;;;18.70;99.90;;;;;;5011513;28;20690;-70
2022/08/09 00:50:43;;;;;;;11.33;8.20;;;18.80;99.90;;;;;;5013427;28;20706;-71
2022/08/09 00:53:11;;;;;;;11.10;8.43;;;18.70;99.90;;;;;;5013983;28;20296;-70
2022/08/09 00:55:38;;;;;;;12.67;9.60;;;18.60;99.90;;;;;;5012778;28;20222;-71
2022/08/09 00:58:05;;;;;;;10.13;8.10;;;18.60;99.90;;;;;;5012448;28;20619;-71
2022/08/09 01:00:35;;;;;;;9.30;8.27;;;18.60;99.90;;;;;;5014462;28;20254;-72
2022/08/09 01:03:11;;;;;;;13.67;8.70;;;18.60;99.90;;;;;;5014760;28;20612;-71
2022/08/09 01:05:43;;;;;;;11.87;8.90;;;18.60;99.90;;;;;;5014461;28;20600;-73
2022/08/09 01:08:15;;;;;;;13.90;9.73;;;18.60;99.90;;;;;;5014509;28;20284;-71
2022/08/09 01:10:53;;;;;;;13.57;9.37;;;18.50;99.90;;;;;;5011335;28;20209;-72
2022/08/09 01:13:30;;;;;;;12.43;9.30;;;18.50;99.90;;;;;;5014450;28;20201;-71
2022/08/09 01:16:00;;;;;;;11.80;9.37;;;18.40;99.90;;;;;;5014480;28;20245;-71
2022/08/09 01:18:31;;;;;;;13.27;9.90;;;18.40;99.90;;;;;;5014605;28;20649;-71
2022/08/09 01:21:14;;;;;;;11.43;8.87;;;18.40;99.90;;;;;;5014314;28;20287;-71
2022/08/09 01:23:53;;;;;;;10.97;8.40;;;18.40;99.90;;;;;;5013753;28;20287;-71
2022/08/09 01:26:46;;;;;;;11.07;8.27;;;18.40;99.90;;;;;;5013208;28;20214;-70
2022/08/09 01:29:16;;;;;;;13.13;8.40;;;18.40;99.90;;;;;;5010578;28;20213;-71
2022/08/09 01:31:44;;;;;;;11.27;8.50;;;18.40;99.90;;;;;;5013932;28;20286;-71
2022/08/09 01:34:16;;;;;;;10.90;8.17;;;18.40;99.90;;;;;;5014089;28;20640;-71
2022/08/09 01:36:45;;;;;;;10.40;8.00;;;18.40;99.90;;;;;;5013867;28;20314;-70
2022/08/09 01:39:13;;;;;;;9.63;7.70;;;18.50;99.90;;;;;;5013473;28;20193;-72
2022/08/09 01:41:42;;;;;;;11.43;7.27;;;18.50;99.90;;;;;;5009952;28;20293;-71
2022/08/09 01:44:10;;;;;;;10.27;7.90;;;18.50;99.90;;;;;;5013992;28;20293;-71
2022/08/09 01:46:43;;;;;;;10.60;8.00;;;18.50;99.90;;;;;;5013455;28;20261;-71
2022/08/09 01:49:12;;;;;;;13.40;8.20;;;18.50;99.90;;;;;;5011675;28;20618;-71
2022/08/09 01:51:41;;;;;;;12.10;7.67;;;18.50;99.90;;;;;;5013367;28;20301;-71
2022/08/09 01:54:09;;;;;;;11.10;7.50;;;18.50;99.90;;;;;;5013844;28;20298;-71
2022/08/09 01:56:40;;;;;;;11.40;7.57;;;18.60;99.90;;;;;;5013143;28;20318;-71
2022/08/09 01:59:11;;;;;;;9.07;6.90;;;18.60;99.90;;;;;;5013700;28;20235;-71
2022/08/09 02:01:41;;;;;;;12.23;7.83;;;18.60;99.90;;;;;;5011991;28;20654;-71
2022/08/09 02:04:10;;;;;;;10.03;6.97;;;18.60;99.90;;;;;;5012897;28;20214;-74
2022/08/09 02:09:24;;;;;;;9.73;7.57;;;18.60;99.90;;;;;;5013092;28;20193;-69
2022/08/09 02:11:53;;;;;;;9.10;7.10;;;18.70;99.90;;;;;;5013455;28;20304;-70
2022/08/09 02:14:22;;;;;;;8.47;7.17;;;18.70;99.90;;;;;;5013288;28;20213;-70
2022/08/09 02:16:52;;;;;;;9.87;7.40;;;18.70;99.90;;;;;;5012058;28;20206;-70
2022/08/09 02:19:20;;;;;;;10.60;7.40;;;18.70;99.90;;;;;;5013065;28;20249;-71
2022/08/09 02:21:49;;;;;;;8.90;7.40;;;18.70;99.90;;;;;;5013520;28;20570;-72
2022/08/09 02:24:22;;;;;;;9.17;7.53;;;18.60;99.90;;;;;;5013352;28;20643;-71
2022/08/09 02:26:51;;;;;;;9.23;7.00;;;18.70;99.90;;;;;;5013110;28;20203;-73
2022/08/09 02:29:23;;;;;;;9.00;7.07;;;18.70;99.90;;;;;;5012589;28;20257;-71
2022/08/09 02:31:57;;;;;;;8.07;5.93;;;18.70;99.90;;;;;;5012278;28;20566;-70
2022/08/09 02:34:28;;;;;;;10.00;6.83;;;18.70;99.90;;;;;;5012996;28;20811;-71
2022/08/09 02:36:58;;;;;;;8.53;6.77;;;18.70;99.90;;;;;;5012614;28;20300;-72
2022/08/09 02:39:29;;;;;;;7.27;6.50;;;18.70;99.90;;;;;;5012785;28;20679;-71
2022/08/09 02:41:59;;;;;;;7.37;6.03;;;18.70;99.90;;;;;;5012990;28;20291;-70
2022/08/09 02:44:30;;;;;;;7.73;6.13;;;18.70;99.90;;;;;;5012481;28;20196;-72
2022/08/09 02:47:03;;;;;;;7.90;6.23;;;18.70;99.90;;;;;;5010979;28;20245;-71
2022/08/09 02:49:32;;;;;;;7.37;6.13;;;18.70;99.90;;;;;;5011966;28;20204;-70
2022/08/09 02:52:00;;;;;;;11.90;6.33;;;18.70;99.90;;;;;;5012496;28;20211;-72
2022/08/09 02:54:28;;;;;;;7.70;6.13;;;18.70;99.90;;;;;;5012471;28;20206;-71
2022/08/09 02:56:57;;;;;;;8.50;6.27;;;18.70;99.90;;;;;;5012618;28;20322;-71
2022/08/09 02:59:25;;;;;;;7.30;5.73;;;18.70;99.90;;;;;;5011786;28;20251;-71
2022/08/09 03:01:57;;;;;;;7.00;5.90;;;18.80;99.90;;;;;;5012595;28;20210;-70
2022/08/09 03:04:27;;;;;;;7.87;5.83;;;18.70;99.90;;;;;;5012526;28;20203;-71
2022/08/09 03:06:56;;;;;;;9.17;6.40;;;18.80;99.90;;;;;;5012532;28;20255;-71
2022/08/09 03:09:23;;;;;;;6.70;5.70;;;18.80;99.90;;;;;;5012331;28;20684;-70
2022/08/09 03:11:52;;;;;;;9.00;6.03;;;18.80;99.90;;;;;;5010904;28;20215;-72
2022/08/09 03:14:21;;;;;;;8.13;6.10;;;18.80;99.90;;;;;;5011836;28;20322;-71
2022/08/09 03:16:48;;;;;;;9.10;6.27;;;18.90;99.90;;;;;;5012516;28;20663;-70
2022/08/09 03:19:17;;;;;;;11.07;7.27;;;18.90;99.90;;;;;;5011802;28;20206;-71
2022/08/09 03:21:49;;;;;;;10.63;6.90;;;18.90;99.90;;;;;;5012169;28;20205;-70
2022/08/09 03:24:16;;;;;;;9.40;6.60;;;18.90;99.90;;;;;;5012117;28;20196;-71
2022/08/09 03:26:44;;;;;;;8.77;6.87;;;18.80;99.90;;;;;;5011560;28;20211;-71
2022/08/09 03:29:13;;;;;;;8.37;6.23;;;18.80;99.90;;;;;;5012083;28;20668;-71
2022/08/09 03:31:40;;;;;;;10.00;6.80;;;18.80;99.90;;;;;;5012198;28;20761;-72
2022/08/09 03:34:08;;;;;;;9.23;7.40;;;18.70;99.90;;;;;;5011966;28;20248;-71
2022/08/09 03:36:35;;;;;;;9.90;7.37;;;18.80;99.90;;;;;;5011643;28;20327;-72
2022/08/09 03:39:05;;;;;;;11.67;7.53;;;18.70;99.90;;;;;;5011669;28;20214;-71
2022/08/09 03:41:31;;;;;;;10.27;7.10;;;18.60;99.90;;;;;;5012169;28;20297;-70
2022/08/09 03:43:58;;;;;;;9.20;6.43;;;18.60;99.90;;;;;;5011499;28;20206;-72
2022/08/09 03:46:25;;;;;;;8.57;6.70;;;18.70;99.90;;;;;;5009744;28;20287;-71
2022/08/09 03:48:56;;;;;;;7.50;5.80;;;18.70;99.90;;;;;;5012057;28;20210;-71
2022/08/09 03:51:24;;;;;;;9.33;5.57;;;18.80;99.90;;;;;;5010223;28;20208;-70
2022/08/09 03:53:51;;;;;;;5.67;5.07;;;18.80;99.90;;;;;;5012038;28;20303;-71
2022/08/09 03:56:20;;;;;;;7.20;5.33;;;18.80;99.90;;;;;;5010451;28;20232;-72
2022/08/09 03:58:47;;;;;;;7.13;5.07;;;18.80;99.90;;;;;;5011682;28;20214;-71
2022/08/09 04:01:14;;;;;;;7.17;5.30;;;18.90;99.90;;;;;;5011648;28;20300;-71
2022/08/09 04:03:42;;;;;;;6.10;4.70;;;18.90;99.90;;;;;;5011471;28;20758;-71
2022/08/09 04:06:09;;;;;;;6.57;4.57;;;19.00;99.90;;;;;;5009530;28;20289;-71
2022/08/09 04:08:36;;;;;;;6.13;4.60;;;19.00;99.90;;;;;;5011420;28;20207;-70
2022/08/09 04:11:04;;;;;;;4.30;3.70;;;19.10;99.90;;;;;;5011542;28;20638;-70
2022/08/09 04:13:32;;;;;;;6.63;4.13;;;19.10;99.90;;;;;;5011695;28;20760;-70
2022/08/09 04:15:59;;;;;;;8.33;4.57;;;19.10;99.90;;;;;;5010532;28;20227;-72
2022/08/09 04:18:26;;;;;;;8.53;4.00;;;19.10;99.90;;;;;;5011100;28;20207;-71
2022/08/09 04:20:53;;;;;;;3.97;3.57;;;19.20;99.90;;;;;;5010407;28;20285;-70
2022/08/09 04:23:21;;;;;;;4.27;3.50;;;19.20;99.90;;;;;;4999521;28;20585;-69
2022/08/09 04:25:48;;;;;;;3.77;3.33;;;19.30;99.90;;;;;;5008028;28;20200;-70
2022/08/09 04:28:15;;;;;;;4.43;3.47;;;19.40;99.90;;;;;;5014739;28;20669;-71
2022/08/09 04:30:43;;;;;;;5.67;3.33;;;19.40;99.90;;;;;;5014903;28;20271;-71
2022/08/09 04:33:10;;;;;;;4.03;3.13;;;19.40;99.90;;;;;;5005203;28;20281;-70
2022/08/09 04:35:38;;;;;;;6.80;5.13;;;19.50;99.90;;;;;;5005462;28;20278;-71
2022/08/09 04:38:05;;;;;;;4.33;3.50;;;19.60;99.90;;;;;;5012427;28;20207;-70
2022/08/09 04:43:14;;;;;;;4.53;3.17;;;19.60;99.90;;;;;;5007766;28;20191;-75
2022/08/09 04:45:41;;;;;;;3.80;3.10;;;19.70;99.90;;;;;;5008234;28;20747;-72
2022/08/09 04:48:09;;;;;;;2.83;2.20;;;19.70;99.90;;;;;;5006161;28;20625;-71
2022/08/09 04:50:36;;;;;;;4.67;2.83;;;19.80;99.90;;;;;;4998192;28;20216;-71
2022/08/09 04:53:04;;;;;;;2.87;2.13;;;19.80;99.90;;;;;;5001462;28;20574;-71
2022/08/09 04:55:31;;;;;;;2.60;2.10;;;19.80;99.90;;;;;;5014855;28;20401;-71
2022/08/09 04:57:58;;;;;;;2.13;1.80;;;19.80;99.90;;;;;;5014487;28;20302;-70
2022/08/09 05:00:25;;;;;;;3.00;2.70;;;19.90;99.90;;;;;;5014756;28;20570;-71
2022/08/09 05:02:52;;;;;;;3.30;2.33;;;19.90;99.90;;;;;;5004831;28;20583;-73
2022/08/09 05:05:20;;;;;;;3.60;2.40;;;19.90;99.90;;;;;;5008394;28;20234;-73
2022/08/09 05:07:47;;;;;;;7.40;3.93;;;20.00;99.90;;;;;;4995231;28;20294;-73
2022/08/09 05:10:14;;;;;;;5.13;2.63;;;20.00;99.90;;;;;;4994993;28;20301;-73
2022/08/09 05:12:41;;;;;;;4.33;2.80;;;20.00;99.90;;;;;;4996449;28;20852;-73
2022/08/09 05:15:09;;;;;;;2.93;2.30;;;20.10;99.90;;;;;;5014268;28;20211;-74
2022/08/09 05:17:36;;;;;;;2.80;2.17;;;20.10;99.90;;;;;;5014636;28;20317;-72
2022/08/09 05:20:04;;;;;;;4.97;1.93;;;20.20;99.90;;;;;;5014578;28;20253;-73
2022/08/09 05:22:32;;;;;;;4.10;2.07;;;20.20;99.90;;;;;;5014264;28;20635;-72
2022/08/09 05:24:59;;;;;;;3.93;2.90;;;20.20;99.90;;;;;;5014693;28;20867;-74
2022/08/09 05:27:26;;;;;;;5.33;2.50;;;20.20;99.90;;;;;;5014598;28;20238;-72
2022/08/09 05:29:53;;;;;;;4.20;2.90;;;20.10;99.90;;;;;;5008779;28;20309;-72
2022/08/09 05:32:20;;;;;;;4.17;3.40;;;20.20;99.90;;;;;;5004823;28;20702;-71
2022/08/09 05:34:47;;;;;;;4.93;2.67;;;20.20;99.90;;;;;;5008794;28;20202;-73
2022/08/09 05:37:14;;;;;;;3.50;1.97;;;20.20;99.90;;;;;;5004945;28;20291;-71
2022/08/09 05:39:42;;;;;;;4.13;2.53;;;20.20;99.90;;;;;;5004541;28;20572;-70
2022/08/09 05:42:09;;;;;;;2.13;1.93;;;20.30;99.90;;;;;;5003924;28;20295;-70
2022/08/09 05:44:36;;;;;;;2.57;2.00;;;20.40;99.90;;;;;;5003173;28;20292;-73
2022/08/09 05:47:03;;;;;;;4.20;1.93;;;20.40;99.90;;;;;;5004799;28;20196;-73
2022/08/09 05:49:30;;;;;;;6.83;1.90;;;20.50;99.90;;;;;;5003266;28;20296;-74
2022/08/09 05:51:57;;;;;;;2.80;1.80;;;20.60;99.90;;;;;;5010586;28;20263;-73
2022/08/09 05:54:24;;;;;;;3.40;1.90;;;20.70;99.90;;;;;;5013836;28;20286;-73
2022/08/09 05:56:52;;;;;;;2.30;2.00;;;20.70;99.90;;;;;;5012322;28;20230;-74
2022/08/09 05:59:20;;;;;;;4.30;2.17;;;20.80;99.90;;;;;;5002576;28;20203;-73
2022/08/09 06:01:48;;;;;;;3.47;2.17;;;20.80;99.90;;;;;;5014298;28;20684;-73
2022/08/09 06:04:15;;;;;;;4.13;2.00;;;20.90;99.90;;;;;;5012570;28;20297;-73
2022/08/09 06:06:42;;;;;;;2.47;1.90;;;20.90;99.90;;;;;;5020353;28;20268;-71
2022/08/09 06:09:09;;;;;;;3.17;2.00;;;20.90;99.90;;;;;;5033562;28;20750;-73
2022/08/09 06:11:36;;;;;;;3.10;1.70;;;21.00;99.90;;;;;;5034039;28;20214;-71
2022/08/09 06:14:04;;;;;;;3.80;1.67;;;21.00;99.90;;;;;;5033316;28;20292;-73
2022/08/09 06:16:31;;;;;;;2.30;1.83;;;21.10;99.90;;;;;;5033535;28;20675;-71
2022/08/09 06:18:58;;;;;;;3.47;1.90;;;21.10;99.90;;;;;;5033666;28;20296;-73
2022/08/09 06:21:25;;;;;;;4.23;1.70;;;21.10;99.90;;;;;;5018824;28;20711;-71
2022/08/09 06:23:54;;;;;;;2.00;1.60;;;21.20;99.90;;;;;;5014102;28;20203;-72
2022/08/09 06:26:22;;;;;;;2.13;1.90;;;21.20;99.90;;;;;;5012823;28;20207;-71
2022/08/09 06:28:50;;;;;;;3.30;1.70;;;21.30;99.90;;;;;;5012117;28;20235;-71
2022/08/09 06:31:18;;;;;;;3.43;1.80;;;21.30;99.90;;;;;;5010028;28;20211;-73
2022/08/09 06:33:45;;;;;;;2.30;2.10;;;21.30;99.90;;;;;;5023817;28;20295;-72
2022/08/09 06:36:12;;;;;;;5.00;3.73;;;21.40;99.90;;;;;;5015239;28;20235;-71
2022/08/09 06:38:39;;;;;;;4.33;2.30;;;21.50;99.90;;;;;;5011369;28;20253;-72
2022/08/09 06:41:07;;;;;;;4.20;1.90;;;21.60;99.90;;;;;;5020720;28;20285;-72
2022/08/09 06:43:34;;;;;;;2.70;2.10;;;21.50;99.90;;;;;;5012503;28;20203;-72
2022/08/09 06:46:00;;;;;;;3.87;2.17;;;21.50;99.90;;;;;;5010943;28;20625;-72
2022/08/09 06:48:29;;;;;;;1.70;1.60;;;21.50;99.90;;;;;;5025895;28;20281;-74
2022/08/09 06:50:56;;;;;;;2.53;2.10;;;21.50;99.90;;;;;;5031771;28;20206;-72
2022/08/09 06:53:23;;;;;;;2.93;2.20;;;21.50;99.90;;;;;;5013216;28;20207;-73
2022/08/09 06:55:50;;;;;;;1.90;1.60;;;21.50;99.90;;;;;;5012763;28;20301;-72
2022/08/09 06:58:16;;;;;;;3.63;1.80;;;21.50;99.90;;;;;;5013353;28;20281;-72
2022/08/09 07:00:43;;;;;;;1.70;1.60;;;21.50;99.90;;;;;;5012760;28;20612;-73
2022/08/09 07:03:10;;;;;;;3.00;1.90;;;21.60;99.90;;;;;;5013756;28;20551;-72
2022/08/09 07:05:38;;;;;;;2.10;1.70;;;21.60;99.90;;;;;;5032261;28;20716;-71
2022/08/09 07:08:05;;;;;;;1.93;1.70;;;21.70;99.90;;;;;;5032354;28;20252;-72
2022/08/09 07:10:33;;;;;;;1.83;1.60;;;21.80;99.90;;;;;;5031840;28;20231;-74
2022/08/09 07:13:00;;;;;;;1.63;1.53;;;21.90;99.90;;;;;;5032284;28;20204;-72
2022/08/09 07:15:27;;;;;;;2.40;1.90;;;22.00;99.90;;;;;;5031478;28;20573;-71
2022/08/09 07:17:54;;;;;;;3.07;2.00;;;22.00;99.90;;;;;;5032180;28;20229;-71
2022/08/09 07:20:21;;;;;;;3.00;1.67;;;22.00;99.90;;;;;;5032038;28;20247;-74
2022/08/09 07:22:50;;;;;;;3.50;1.50;;;22.10;99.90;;;;;;5031420;28;20753;-73
2022/08/09 07:25:16;;;;;;;2.53;1.67;;;22.20;99.90;;;;;;5031730;28;20234;-72
2022/08/09 07:27:43;;;;;;;3.97;2.20;;;22.10;99.90;;;;;;5017017;28;20706;-72
2022/08/09 07:30:12;;;;;;;3.37;1.60;;;22.10;99.90;;;;;;5012296;28;20797;-71
2022/08/09 07:32:39;;;;;;;3.13;1.60;;;22.10;99.90;;;;;;5010244;28;20306;-71
2022/08/09 07:35:09;;;;;;;1.67;1.43;;;22.10;99.90;;;;;;5009847;28;20339;-72
2022/08/09 07:37:37;;;;;;;1.83;1.73;;;22.10;99.90;;;;;;4998764;28;20688;-73
2022/08/09 07:40:06;;;;;;;1.83;1.60;;;22.10;99.90;;;;;;5010178;28;20216;-72
2022/08/09 07:42:33;;;;;;;2.13;1.73;;;22.10;99.90;;;;;;5010874;28;20644;-71
2022/08/09 07:45:00;;;;;;;2.77;1.60;;;22.20;99.90;;;;;;5007971;28;20208;-71
2022/08/09 07:47:27;;;;;;;2.40;1.50;;;22.20;99.90;;;;;;5010242;28;20204;-74
2022/08/09 07:49:53;;;;;;;1.77;1.40;;;22.30;99.90;;;;;;5010917;28;20206;-72
2022/08/09 07:52:20;;;;;;;1.60;1.50;;;22.30;99.90;;;;;;5010825;28;20238;-72
2022/08/09 07:54:47;;;;;;;2.73;1.40;;;22.20;99.90;;;;;;5009878;28;20237;-72
2022/08/09 07:57:15;;;;;;;3.10;1.40;;;22.20;99.90;;;;;;5012171;28;20658;-71
2022/08/09 07:59:42;;;;;;;1.60;1.30;;;22.20;99.90;;;;;;5014755;28;20235;-73
2022/08/09 08:02:09;;;;;;;4.43;1.60;;;22.20;99.90;;;;;;5016137;28;20653;-72
2022/08/09 08:04:37;;;;;;;3.10;1.47;;;22.10;99.90;;;;;;5014009;28;20249;-73
2022/08/09 08:07:04;;;;;;;3.83;1.63;;;22.20;99.90;;;;;;5014651;28;20201;-74
2022/08/09 08:09:31;;;;;;;2.13;1.40;;;22.20;99.90;;;;;;5015383;28;20310;-73
2022/08/09 08:11:58;;;;;;;2.23;1.50;;;22.30;99.90;;;;;;5015189;28;20235;-72
2022/08/09 08:14:27;;;;;;;3.93;1.70;;;22.40;99.90;;;;;;5014482;28;20311;-71
2022/08/09 08:16:53;;;;;;;4.17;1.40;;;22.40;99.90;;;;;;5013582;28;20731;-71
2022/08/09 08:19:20;;;;;;;3.03;1.33;;;22.40;99.90;;;;;;5014163;28;20400;-73
2022/08/09 08:21:49;;;;;;;4.33;1.50;;;22.30;99.90;;;;;;5014106;28;20288;-72
2022/08/09 08:24:16;;;;;;;1.50;1.40;;;22.30;99.90;;;;;;5012416;28;20267;-73
2022/08/09 08:26:42;;;;;;;3.30;1.60;;;22.30;99.90;;;;;;5013030;28;20872;-74
2022/08/09 08:29:09;;;;;;;1.57;1.33;;;22.30;99.90;;;;;;5014102;28;20304;-73
2022/08/09 08:31:38;;;;;;;3.03;1.20;;;22.30;99.90;;;;;;5015273;28;20254;-71
2022/08/09 08:34:05;;;;;;;1.53;1.20;;;22.20;99.90;;;;;;5012994;28;20297;-71
2022/08/09 08:36:32;;;;;;;3.00;1.30;;;22.20;99.90;;;;;;5011977;28;20712;-71
2022/08/09 08:39:00;;;;;;;3.97;1.50;;;22.20;99.90;;;;;;5023079;28;20209;-72
2022/08/09 08:41:27;;;;;;;2.93;1.30;;;22.20;99.90;;;;;;5014898;28;20241;-73
2022/08/09 08:43:54;;;;;;;2.20;1.30;;;22.10;99.90;;;;;;5015101;28;20241;-70
2022/08/09 08:46:25;;;;;;;1.37;1.27;;;22.20;99.90;;;;;;5014972;28;20291;-73
2022/08/09 08:48:53;;;;;;;2.07;1.60;;;22.10;99.90;;;;;;5014913;28;20289;-72
2022/08/09 08:51:21;;;;;;;3.03;1.60;;;22.20;99.90;;;;;;5014927;28;20254;-71
2022/08/09 08:53:48;;;;;;;2.47;1.60;;;22.20;99.90;;;;;;5015331;28;20704;-74
2022/08/09 08:56:15;;;;;;;1.77;1.47;;;22.20;99.90;;;;;;5014155;28;20207;-71
2022/08/09 08:58:43;;;;;;;2.10;1.87;;;22.20;99.90;;;;;;5014865;28;20303;-73
2022/08/09 09:01:10;;;;;;;3.03;1.90;;;22.30;99.90;;;;;;5015046;28;20307;-71
2022/08/09 09:03:38;;;;;;;2.73;1.50;;;22.40;99.90;;;;;;5014822;28;20229;-71
2022/08/09 09:06:07;;;;;;;4.23;1.60;;;22.50;99.90;;;;;;5014667;28;20305;-72
2022/08/09 09:08:38;;;;;;;2.50;1.10;;;22.60;99.90;;;;;;5014603;28;20207;-71
2022/08/09 09:11:06;;;;;;;1.30;1.20;;;22.60;99.90;;;;;;5014230;28;20697;-71
2022/08/09 09:13:38;;;;;;;1.77;1.13;;;22.60;99.90;;;;;;5014826;28;20991;-71
2022/08/09 09:16:06;;;;;;;1.20;1.10;;;22.60;99.90;;;;;;5014791;28;20191;-71
2022/08/09 09:18:33;;;;;;;2.70;1.27;;;22.60;99.90;;;;;;5014571;28;20724;-71
2022/08/09 09:21:00;;;;;;;5.73;1.20;;;22.70;99.90;;;;;;5014472;28;20222;-71
2022/08/09 09:23:45;;;;;;;3.27;1.10;;;22.70;99.90;;;;;;5014626;28;20731;-71
2022/08/09 09:26:13;;;;;;;2.57;1.20;;;22.80;99.90;;;;;;5014627;28;20278;-72
2022/08/09 09:28:45;;;;;;;1.63;1.17;;;22.80;99.90;;;;;;5014326;28;20312;-72
2022/08/09 09:31:16;;;;;;;1.77;1.20;;;22.70;99.90;;;;;;5012427;28;20612;-69
2022/08/09 09:33:43;;;;;;;4.10;1.20;;;22.80;99.90;;;;;;5012694;28;20611;-72
2022/08/09 09:36:11;;;;;;;2.23;1.50;;;22.80;99.90;;;;;;5011965;28;20322;-73
2022/08/09 09:38:40;;;;;;;1.87;1.47;;;22.80;99.90;;;;;;5033822;28;20294;-70
2022/08/09 09:41:09;;;;;;;3.57;1.57;;;22.90;99.90;;;;;;5017445;28;20205;-71
2022/08/09 09:43:36;;;;;;;2.67;1.20;;;22.90;99.90;;;;;;5013939;28;20209;-71
2022/08/09 09:46:04;;;;;;;2.33;1.20;;;22.90;99.90;;;;;;5011927;28;20297;-71
2022/08/09 09:48:31;;;;;;;2.73;1.30;;;23.00;99.90;;;;;;5022063;28;20297;-71
2022/08/09 09:50:58;;;;;;;1.20;1.10;;;23.00;99.90;;;;;;5011014;28;20232;-72
2022/08/09 09:53:27;;;;;;;1.67;1.40;;;23.00;99.90;;;;;;5028733;28;20282;-70
2022/08/09 09:55:57;;;;;;;5.13;1.43;;;23.00;99.90;;;;;;5023966;28;20291;-74
2022/08/09 09:58:26;;;;;;;1.30;1.20;;;23.00;99.90;;;;;;5013355;28;20314;-71
2022/08/09 10:00:54;;;;;;;1.50;1.20;;;23.00;99.90;;;;;;5013603;28;20744;-73
2022/08/09 10:03:41;;;;;;;1.50;1.20;;;22.90;99.90;;;;;;5020316;28;20300;-75
2022/08/09 10:06:09;;;;;;;3.93;1.23;;;22.80;99.90;;;;;;5013607;28;20670;-71
2022/08/09 10:08:36;;;;;;;5.00;1.67;;;22.80;99.90;;;;;;5013814;28;20605;-72
2022/08/09 10:11:17;;;;;;;1.03;1.03;;;22.80;99.90;;;;;;5011562;28;20717;-70
2022/08/09 10:13:46;;;;;;;2.70;1.03;;;22.80;99.90;;;;;;5028765;28;20194;-70
2022/08/09 10:16:13;;;;;;;1.87;1.13;;;22.70;99.90;;;;;;5013978;28;20655;-71
2022/08/09 10:18:49;;;;;;;2.27;1.20;;;22.70;99.90;;;;;;5013561;28;20311;-69
2022/08/09 10:21:16;;;;;;;1.57;1.20;;;22.80;99.90;;;;;;5014151;28;20208;-72
2022/08/09 10:23:43;;;;;;;2.17;1.20;;;22.80;99.90;;;;;;5011991;28;20205;-72
2022/08/09 10:26:11;;;;;;;2.37;1.20;;;22.80;99.90;;;;;;5013457;28;20647;-72
2022/08/09 10:28:40;;;;;;;1.93;1.10;;;22.80;99.90;;;;;;5012477;28;20209;-73
2022/08/09 10:31:09;;;;;;;1.03;1.03;;;22.90;99.90;;;;;;5032814;28;20299;-73
2022/08/09 10:33:36;;;;;;;2.30;1.10;;;22.90;99.90;;;;;;5024384;28;20299;-72
2022/08/09 10:36:04;;;;;;;1.73;1.10;;;22.80;99.90;;;;;;5018045;28;20667;-72
2022/08/09 10:38:31;;;;;;;1.13;1.03;;;22.80;99.90;;;;;;5013923;28;20649;-72
2022/08/09 10:40:59;;;;;;;2.17;1.30;;;22.90;99.90;;;;;;5016733;28;20205;-74
2022/08/09 10:43:27;;;;;;;1.13;1.10;;;23.00;99.90;;;;;;5012617;28;20233;-73
2022/08/09 10:45:54;;;;;;;1.40;1.30;;;23.00;99.90;;;;;;5025325;28;20228;-72
2022/08/09 10:48:28;;;;;;;2.17;1.10;;;22.90;99.90;;;;;;5022718;28;20300;-71
2022/08/09 10:51:08;;;;;;;6.43;1.37;;;22.90;99.90;;;;;;5032954;28;20263;-73
2022/08/09 10:54:00;;;;;;;1.33;1.20;;;22.80;99.90;;;;;;5032755;28;20487;-69
2022/08/09 10:56:28;;;;;;;1.50;1.27;;;22.80;99.90;;;;;;5002647;28;20264;-73
2022/08/09 10:58:58;;;;;;;1.43;1.20;;;22.80;99.90;;;;;;5025189;28;20589;-71
2022/08/09 11:01:39;;;;;;;1.20;1.10;;;22.80;99.90;;;;;;5013089;28;20299;-71
2022/08/09 11:04:20;;;;;;;3.00;1.40;;;22.90;99.90;;;;;;5020825;28;20209;-72
2022/08/09 11:06:49;;;;;;;2.63;1.10;;;22.90;99.90;;;;;;5012346;28;20235;-72
2022/08/09 11:09:39;;;;;;;1.87;1.30;;;22.90;99.90;;;;;;5011888;28;20209;-71
2022/08/09 11:12:12;;;;;;;1.57;1.20;;;22.90;99.90;;;;;;5011399;28;20248;-71
2022/08/09 11:14:43;;;;;;;1.40;1.30;;;23.00;99.90;;;;;;5015160;28;20199;-72
2022/08/09 11:17:51;;;;;;;3.67;1.90;;;23.00;99.90;;;;;;5023622;28;20210;-73
2022/08/09 11:20:38;;;;;;;2.73;1.73;;;22.90;99.90;;;;;;5011071;28;20248;-71
2022/08/09 11:23:05;;;;;;;3.13;1.93;;;23.00;99.90;;;;;;5024511;28;20217;-71
2022/08/09 11:25:46;;;;;;;1.73;1.37;;;23.00;99.90;;;;;;5032531;28;20557;-71
2022/08/09 11:28:39;;;;;;;2.30;1.30;;;23.00;99.90;;;;;;4995330;28;20289;-72
2022/08/09 11:31:46;;;;;;;1.93;1.50;;;23.10;99.90;;;;;;5010288;28;20234;-71
2022/08/09 11:34:34;;;;;;;3.43;1.47;;;23.10;99.90;;;;;;4991602;28;20201;-72
2022/08/09 11:37:04;;;;;;;3.33;1.63;;;23.10;99.90;;;;;;5022597;28;20213;-70
2022/08/09 11:39:31;;;;;;;5.13;1.63;;;23.10;99.90;;;;;;5012602;28;20235;-72
2022/08/09 11:42:06;;;;;;;2.63;1.50;;;23.20;99.90;;;;;;5012158;28;20316;-71
2022/08/09 11:44:44;;;;;;;2.03;1.70;;;23.00;99.90;;;;;;5012216;28;20217;-70
2022/08/09 11:47:11;;;;;;;3.50;1.60;;;23.00;99.90;;;;;;5029725;28;20211;-71
2022/08/09 11:49:58;;;;;;;1.73;1.43;;;23.00;99.90;;;;;;5032243;28;20294;-71
2022/08/09 11:52:27;;;;;;;2.67;1.63;;;23.00;99.90;;;;;;5014355;28;20224;-71
2022/08/09 11:55:29;;;;;;;3.43;1.70;;;22.90;99.90;;;;;;5013322;28;20205;-73
2022/08/09 11:57:57;;;;;;;4.80;1.60;;;22.90;99.90;;;;;;5005870;28;20777;-71
2022/08/09 12:00:25;;;;;;;1.90;1.47;;;22.90;99.90;;;;;;5013547;28;20227;-73
2022/08/09 12:02:52;;;;;;;2.63;1.50;;;22.90;99.90;;;;;;5020667;28;20215;-72
2022/08/09 12:05:19;;;;;;;3.33;1.30;;;22.90;99.90;;;;;;5014711;28;20201;-71
2022/08/09 12:07:48;;;;;;;2.20;1.20;;;22.90;99.90;;;;;;5012081;28;20703;-73
2022/08/09 12:10:15;;;;;;;2.27;1.30;;;22.90;99.90;;;;;;5011627;28;20213;-71
2022/08/09 12:12:47;;;;;;;2.13;1.73;;;22.80;99.90;;;;;;5017145;28;20291;-72
2022/08/09 12:15:24;;;;;;;2.17;1.10;;;22.90;99.90;;;;;;5028904;28;20208;-71
2022/08/09 12:17:52;;;;;;;2.97;1.40;;;22.90;99.90;;;;;;5011641;28;20283;-73
2022/08/09 12:20:20;;;;;;;2.13;1.20;;;22.90;99.90;;;;;;5014197;28;20208;-73
2022/08/09 12:22:49;;;;;;;1.30;1.20;;;22.90;99.90;;;;;;5028224;28;20297;-72
2022/08/09 12:25:18;;;;;;;1.30;1.20;;;22.90;99.90;;;;;;5012058;28;20294;-72
2022/08/09 12:27:45;;;;;;;1.97;1.30;;;22.80;99.90;;;;;;5012349;28;20290;-73
2022/08/09 12:30:13;;;;;;;1.77;1.20;;;22.80;99.90;;;;;;5012380;28;20208;-72
2022/08/09 12:32:40;;;;;;;1.43;1.30;;;22.80;99.90;;;;;;5012266;28;20626;-71
2022/08/09 12:35:08;;;;;;;2.70;1.30;;;22.70;99.90;;;;;;5011649;28;20243;-72
2022/08/09 12:37:36;;;;;;;2.20;1.30;;;22.70;99.90;;;;;;5009662;28;20236;-72
2022/08/09 12:40:07;;;;;;;4.23;2.80;;;22.70;99.90;;;;;;5024186;28;20213;-69
2022/08/09 12:42:35;;;;;;;1.40;1.30;;;22.70;99.90;;;;;;5012141;28;20666;-71
2022/08/09 12:45:03;;;;;;;3.43;1.30;;;22.60;99.90;;;;;;5012338;28;20402;-71
2022/08/09 12:47:30;;;;;;;1.53;1.13;;;22.60;99.90;;;;;;5015315;28;20255;-72
2022/08/09 12:52:44;;;;;;;4.00;2.20;;;22.50;99.90;;;;;;5018387;28;20206;-71
2022/08/09 12:55:24;;;;;;;5.27;1.40;;;22.40;99.90;;;;;;5016090;28;20609;-74
2022/08/09 12:57:51;;;;;;;2.50;1.50;;;22.40;99.90;;;;;;5013178;28;20277;-72
2022/08/09 13:00:20;;;;;;;1.60;1.50;;;22.40;99.90;;;;;;5017948;28;20308;-72
2022/08/09 13:02:53;;;;;;;3.27;1.33;;;22.50;99.90;;;;;;5025643;28;20216;-71
2022/08/09 13:05:21;;;;;;;6.17;1.40;;;22.40;99.90;;;;;;5013401;28;20326;-70